Thorndike, ME (04986)

2:49 PM EDT on April 30, 2017 (GMT -0400)
Rural | | Change Station

Elev 512 ft 44.50 °N, 69.28 °W | Updated 16 seconds ago

Overcast
Overcast
53.8 °F
Feels Like 53.8 °F
N
0.0
Wind Variable Wind from SSW
Gusts 0.0 mph

Today
High -- | Low -- °F
--% Chance of Precip.
Yesterday
High -- | Low -- °F
Precip. -- in
Pressure 30.25 in
Visibility 10.0 miles
Clouds Scattered Clouds 12000 ft
Mostly Cloudy 20000 ft
Dew Point 29 °F
Humidity 38%
Rainfall 0.00 in
Snow Depth Not available.
5:28 AM 7:40 PM
Waxing Crescent, 25% visible
METAR KBGR 301753Z VRB05KT 10SM SCT120 BKN200 13/M04 A3025 RMK AO2 SLP243 T01281039 10133 20050 58005
Pressure 30.25 in
Visibility 10.0 miles
Clouds Scattered Clouds 12000 ft
Mostly Cloudy 20000 ft
Dew Point 29 °F
Humidity 38%
Rainfall 0.00 in
Snow Depth Not available.
5:28 AM 7:40 PM
Waxing Crescent, 25% visible
METAR KBGR 301753Z VRB05KT 10SM SCT120 BKN200 13/M04 A3025 RMK AO2 SLP243 T01281039 10133 20050 58005

Get Severe Weather Alerts

Thanks for signing up!

Be on the lookout for a verification email in your inbox.

You'll start receiving the daily forecast at 8 AM.

×

10-Day Weather Forecast

Almanac

Astronomy

Apr. 30, 2017 Rise Set
Actual Time
Civil Twilight
Nautical Twilight
Astronomical Twilight
Moon
Length of Visible Light
Length of Day
Tomorrow will be .
, % of the Moon is Illuminated

Today's Extremes

State Highs State Lows

Community

WunderPhotos

WunderBlog® & News

Nearby

Air Quality

  Air Quality AQ Index Pollutant
Not available.

Snow Depth

Station Depth Elevation

Earthquake Activity

City Distance Mag. Time & Date
Minimum magnitude displayed is 2.5.

Coastal Water Temperatures

Place Temperature

Stations

Nearby Weather Stations

Station Location Temp. Windchill Dew Point Humidity Wind Precip. Elev Updated Type
                   

Watches & Warnings

There are currently no watches in effect.